NCAR-RAP Real-Time Weather Data

Output produced by METARs form (21 July 2019  12:49 UTC)
found at http://weather.rap.ucar.edu/surface/
 
 
 
K3S8 211235Z AUTO 00000KT 10SM CLR 14/08 A3000 RMK AO2
 
K4S1 211235Z AUTO 00000KT 1 1/2SM BR SCT002 09/08 A2998 RMK AO2
 
K4S2 211235Z AUTO 19003KT 10SM CLR 11/04 A3001 RMK AO2
 
K6S2 211235Z AUTO 00000KT 10SM OVC015 12/12 A3002 RMK AO2
 
 
KAST 211234Z AUTO 00000KT 10SM SCT011 12/11 A2998 RMK AO2 T01220111
 
KBDN 211235Z AUTO 20004KT 10SM CLR 10/01 A3007 RMK AO2
 
KBKE 211153Z AUTO 00000KT 10SM CLR 05/03 A3009 RMK AO2 SLP174 T00500028 10133 20050 52002
 
KBNO 211153Z AUTO 30007KT 10SM CLR 09/00 A3008 RMK AO2 SLP151 T00940000 10156 20078 53002
 
KBOK 211156Z AUTO 00000KT 3SM BR OVC002 12/11 A2999 RMK AO2 SLP154 60000 T01170111 10128 20117 53004
 
KCVO 211156Z AUTO 30009KT 10SM CLR 14/12 A2998 RMK AO2 SLP152 T01440122 10183 20144 53006
 
 
KDLS 211153Z AUTO 00000KT 10SM CLR 13/04 A2999 RMK AO2 SLP153 T01280039 10200 20111 53006
 
KEUG 211154Z AUTO 18007KT 10SM CLR 13/11 A2998 RMK AO2 SLP150 T01330106 10189 20128 53005
 
KGCD 211235Z AUTO 11007KT 10SM CLR 11/00 A3009 RMK AO2 T01100004
 
KHIO 211153Z AUTO 00000KT 10SM CLR 12/09 A2995 RMK AO2 SLP140 T01170094 10206 20117 53007
 
KHRI 211153Z AUTO 14003KT 10SM CLR 10/05 A2997 RMK AO2 SLP145 T01000050 10167 20094 53001
 
 
KLGD 211156Z AUTO 00000KT 10SM CLR 08/02 A3007 RMK AO2 SLP317 T00830017 10183 20061 51002
 
KLKV 211153Z AUTO 34010KT 10SM CLR 14/01 A3007 RMK AO2 SLP138 T01390006 10189 20139 51003
 
KLMT 211153Z AUTO 00000KT 10SM CLR 10/06 A3005 RMK AO2 SLP133 T01000056 10206 20094 52005
 
KMEH 211156Z AUTO 00000KT 10SM CLR 02/M01 A3008 RMK AO2 SLP178 T00221006 10094 20022 55002
 
KMFR 211153Z AUTO 00000KT 10SM CLR 16/07 A2996 RMK AO2 SLP133 T01610072 10233 20156 53005
 
KMMV 211153Z AUTO 28003KT 10SM CLR 13/11 A2996 RMK AO2 SLP143 T01330111 10178 20117 53007
 
KONO 211153Z AUTO 22003KT 10SM CLR 14/04 A3001 RMK AO2 SLP147 T01390039 10222 20139 53005
 
KONP 211235Z AUTO 00000KT 10SM OVC015 15/13 A3004 RMK AO2
 
KOTH 211156Z AUTO 01004KT 10SM OVC015 16/13 A3004 RMK AO2 SLP171 T01560133 10156 20150 53001
 
 
KPDT 211153Z AUTO 12005KT 10SM CLR 12/02 A2999 RMK AO2 SLP140 T01220022 10200 20111 55001
 
KPDX 211153Z 11005KT 10SM CLR 16/12 A2996 RMK AO2 SLP144 T01560117 10233 20156 53009
 
KRBG 211153Z AUTO 00000KT 10SM CLR 14/09 A2999 RMK AO2 SLP155 T01390094 10217 20139 53008
 
KRDM 211156Z 16005KT 10SM CLR 07/M01 A3006 RMK AO2 SLP161 T00721011 10189 20067 51005
 
KREO 211152Z AUTO 13003KT 10/ A3006 RMK AO1 SLP144 T0100 10189 20100 50004 $
 
 
KS33 211235Z AUTO 14006KT 10SM CLR 07/01 A3006 RMK AO2
 
KS39 211235Z AUTO 18003KT 10SM CLR 06/M01 A3007 RMK AO2
 
KSLE 211156Z AUTO 17003KT 10SM CLR 13/11 A2996 RMK AO2 SLP144 T01280106 10206 20128 53006
 
KSPB 211153Z AUTO 27003KT 10SM CLR 13/09 A2995 RMK AO2 SLP141 T01280094 10228 20128 53009
 
KSXT 211156Z AUTO 35007KT 10SM CLR 12/08 A3004 RMK AO2 SLP127 T01220083 10161 20122 53000
 
KTMK 211235Z AUTO 00000KT 10SM OVC006 12/11 A3002 RMK AO2
 
KTTD 211153Z AUTO 00000KT 10SM CLR 12/08 A2996 RMK AO2 SLP144 T01220078 10200 20122 51011
 
KUAO 211153Z AUTO 00000KT 10SM CLR 13/11 A2997 RMK AO2 SLP147 T01280106 10217 20128 53009